Cleveland, Oklahoma
Current Conditions -  °F | °C
As of 10:15 AM on Thursday 29 Jan 2015 (Local Time) from KOWP Reporting Station
Broken Clouds Broken Clouds  
Wind Chill: 42°   Ceiling: 2900
Heat Index: 47°   Visibility: 10mi
Dew Point: 32°   Wind: 13mph
Humidity: 55%   Direction: 340°NNW
Pressure: 30.37"   Gusts: 22mph
Location:  36.31°N, 96.46°W
Report Text: KOWP 291615Z AUTO 34011G19KT 10SM BKN029 09/00 A3037 RMK AO2 T00860000
Loading
Personal Weather Stations






























Interactive Weather Map New forecast layout! Learn more

10-Day Weather Forecast

Advertisements
Track Severe Weather on mobile